createdAt,value
2022-11-12T00:00:59.004Z,9.88
2022-11-12T00:06:20.323Z,10.00
2022-11-12T00:11:42.933Z,10.00
2022-11-12T00:17:04.219Z,10.35
2022-11-12T00:22:25.394Z,9.77
2022-11-12T00:27:47.807Z,9.65
2022-11-12T00:33:09.839Z,9.38
2022-11-12T00:38:31.908Z,8.90
2022-11-12T00:43:54.513Z,8.73
2022-11-12T00:49:15.893Z,8.63
2022-11-12T00:54:37.176Z,8.43
2022-11-12T00:59:59.691Z,9.07
2022-11-12T01:05:21.078Z,10.13
2022-11-12T01:10:42.446Z,9.32
2022-11-12T01:16:08.464Z,9.73
2022-11-12T01:21:32.576Z,9.00
2022-11-12T01:26:53.876Z,9.52
2022-11-12T01:32:16.552Z,9.32
2022-11-12T01:37:37.935Z,9.90
2022-11-12T01:42:59.148Z,9.15
2022-11-12T01:48:28.049Z,9.25
2022-11-12T01:53:56.016Z,9.20
2022-11-12T01:59:24.029Z,9.85
2022-11-12T02:04:47.863Z,9.63
2022-11-12T02:10:10.625Z,9.98
2022-11-12T02:15:32.205Z,9.25
2022-11-12T02:20:58.338Z,9.52
2022-11-12T02:26:20.776Z,9.93
2022-11-12T02:31:42.152Z,9.30
2022-11-12T02:37:03.217Z,10.02
2022-11-12T02:42:25.854Z,9.43
2022-11-12T02:47:47.216Z,9.90
2022-11-12T02:53:08.333Z,10.30
2022-11-12T02:58:31.445Z,10.40
2022-11-12T03:03:52.978Z,10.27
2022-11-12T03:09:14.365Z,11.32
2022-11-12T03:14:37.362Z,11.40
2022-11-12T03:19:58.552Z,11.38
2022-11-12T03:25:19.816Z,12.15
2022-11-12T03:30:43.911Z,11.70
2022-11-12T03:36:05.682Z,11.68
2022-11-12T03:41:26.921Z,12.13
2022-11-12T03:46:49.357Z,11.80
2022-11-12T03:52:10.541Z,11.75
2022-11-12T03:57:31.862Z,12.32
2022-11-12T04:02:54.729Z,11.90
2022-11-12T04:08:36.858Z,11.77
2022-11-12T04:13:58.091Z,13.27
2022-11-12T04:19:38.102Z,12.40
2022-11-12T04:25:19.180Z,13.48
2022-11-12T04:30:40.639Z,13.52
2022-11-12T04:36:03.474Z,12.95
2022-11-12T04:41:41.871Z,14.10
2022-11-12T04:47:03.439Z,13.48
2022-11-12T04:52:26.673Z,13.80
2022-11-12T04:57:48.100Z,12.82
2022-11-12T05:03:09.663Z,12.55
2022-11-12T05:08:32.562Z,12.95
2022-11-12T05:13:53.889Z,13.40
2022-11-12T05:19:15.208Z,13.45
2022-11-12T05:24:42.611Z,13.98
2022-11-12T05:30:05.388Z,13.90
2022-11-12T05:35:26.617Z,13.13
2022-11-12T05:40:49.178Z,14.10
2022-11-12T05:46:10.477Z,13.20
2022-11-12T05:51:31.795Z,13.52
2022-11-12T05:56:54.575Z,14.27
2022-11-12T06:02:15.857Z,13.93
2022-11-12T06:07:37.126Z,15.05
2022-11-12T06:12:59.798Z,12.85
2022-11-12T06:18:21.808Z,13.60
2022-11-12T06:23:42.980Z,13.68
2022-11-12T06:29:05.699Z,13.05
2022-11-12T06:34:26.768Z,13.68
2022-11-12T06:39:52.139Z,13.38
2022-11-12T06:45:17.977Z,13.73
2022-11-12T06:50:39.537Z,13.07
2022-11-12T06:56:03.763Z,13.73
2022-11-12T07:01:44.790Z,13.68
2022-11-12T07:07:10.842Z,14.23
2022-11-12T07:12:32.711Z,14.85
2022-11-12T07:17:56.572Z,14.73
2022-11-12T07:23:17.865Z,14.40
2022-11-12T07:28:44.186Z,13.50
2022-11-12T07:34:07.093Z,13.82
2022-11-12T07:39:28.742Z,13.38
2022-11-12T07:44:53.446Z,14.13
2022-11-12T07:50:24.162Z,13.80
2022-11-12T07:55:56.614Z,14.60
2022-11-12T08:01:29.556Z,13.13
2022-11-12T08:06:52.865Z,12.68
2022-11-12T08:12:14.443Z,13.02
2022-11-12T08:17:39.731Z,13.00
2022-11-12T08:23:02.590Z,13.50
2022-11-12T08:28:24.161Z,12.73
2022-11-12T08:33:46.038Z,13.25
2022-11-12T08:39:09.443Z,14.40
2022-11-12T08:44:31.052Z,11.90
2022-11-12T08:49:52.426Z,11.82
2022-11-12T08:55:15.402Z,12.18
2022-11-12T09:00:38.546Z,13.07
2022-11-12T09:06:03.647Z,12.07
2022-11-12T09:11:30.858Z,11.85
2022-11-12T09:16:52.510Z,12.15
2022-11-12T09:22:27.987Z,11.77
2022-11-12T09:27:49.283Z,11.43
2022-11-12T09:33:10.612Z,11.70
2022-11-12T09:38:33.328Z,11.68
2022-11-12T09:43:59.565Z,13.48
2022-11-12T09:49:26.386Z,13.80
2022-11-12T09:54:53.979Z,11.77
2022-11-12T10:00:17.670Z,11.95
2022-11-12T10:05:43.596Z,12.02
2022-11-12T10:11:21.699Z,12.63
2022-11-12T10:16:56.402Z,13.05
2022-11-12T10:22:40.991Z,13.27
2022-11-12T10:28:16.826Z,12.05
2022-11-12T10:33:38.293Z,12.75
2022-11-12T10:38:59.667Z,13.52
2022-11-12T10:44:27.251Z,13.32
2022-11-12T10:50:03.923Z,12.93
2022-11-12T10:55:27.402Z,13.45
2022-11-12T11:01:01.990Z,12.85
2022-11-12T11:06:26.812Z,12.60
2022-11-12T11:11:53.555Z,12.20
2022-11-12T11:17:19.388Z,12.48
2022-11-12T11:22:43.595Z,11.93
2022-11-12T11:28:17.418Z,12.55
2022-11-12T11:33:49.583Z,11.93
2022-11-12T11:39:25.971Z,11.88
2022-11-12T11:44:57.232Z,10.63
2022-11-12T11:50:27.110Z,10.05
2022-11-12T11:55:55.906Z,10.20
2022-11-12T12:01:27.373Z,10.75
2022-11-12T12:07:04.979Z,12.75
2022-11-12T12:12:40.239Z,9.85
2022-11-12T12:18:14.345Z,12.50
2022-11-12T12:23:41.264Z,10.10
2022-11-12T19:24:33.922Z,13.57
2022-11-12T19:30:02.954Z,12.82
2022-11-12T19:35:24.679Z,14.35
2022-11-12T19:40:47.615Z,13.20
2022-11-12T19:46:09.519Z,12.45
2022-11-12T19:51:31.191Z,12.15
2022-11-12T19:56:54.278Z,12.02
2022-11-12T20:02:28.152Z,12.18
2022-11-12T20:07:55.638Z,12.85
2022-11-12T20:13:18.407Z,12.63
2022-11-12T20:18:39.919Z,12.38
2022-11-12T20:24:01.759Z,11.82
2022-11-12T20:29:24.504Z,12.20
2022-11-12T20:34:46.280Z,13.00
2022-11-12T20:40:09.218Z,11.85
2022-11-12T20:45:32.797Z,12.70
2022-11-12T20:51:23.220Z,12.18
2022-11-12T20:56:45.750Z,11.95
2022-11-12T21:02:10.470Z,12.18
2022-11-12T21:07:32.125Z,11.35
2022-11-12T21:13:13.685Z,12.23
2022-11-12T21:18:38.681Z,12.55
2022-11-12T21:24:05.031Z,15.18
2022-11-12T21:29:26.822Z,11.43
2022-11-12T21:34:49.433Z,12.35
2022-11-12T21:40:13.817Z,11.43
2022-11-12T21:45:35.273Z,12.73
2022-11-12T21:51:02.880Z,12.65
2022-11-12T21:56:24.967Z,11.98
2022-11-12T22:01:46.511Z,11.68
2022-11-12T22:07:09.861Z,12.13
2022-11-12T22:12:32.799Z,11.52
2022-11-12T22:17:58.232Z,13.10
2022-11-12T22:23:21.098Z,11.60
2022-11-12T22:28:42.583Z,12.10
2022-11-12T22:34:49.628Z,12.60
2022-11-12T22:40:13.854Z,13.50
2022-11-12T22:45:36.912Z,13.57
2022-11-12T22:51:04.999Z,14.15
2022-11-12T22:56:29.131Z,13.23
2022-11-12T23:01:50.969Z,13.27
2022-11-12T23:07:12.710Z,13.60
2022-11-12T23:12:35.589Z,12.75
2022-11-12T23:17:56.797Z,13.30
2022-11-12T23:23:18.251Z,13.77
2022-11-12T23:35:53.390Z,12.65
2022-11-12T23:41:17.410Z,12.07
2022-11-12T23:46:39.086Z,12.82
2022-11-12T23:52:01.852Z,12.68
2022-11-12T23:57:23.386Z,12.25
